Time;durP1;ratioP1;P1;durP2;ratioP2;P2;SDS_P1;SDS_P2;PMS_P1;PMS_P2;Temp;Humidity;BMP_temperature;BMP_pressure;BME280_temperature;BME280_humidity;BME280_pressure;Samples;Min_cycle;Max_cycle;Signal;HPM_P1;HPM_P2
2023/08/31 00:01:49;;;;;;;6.68;1.10;;;12.40;99.90;;;;;;5045635;28;20644;-52
2023/08/31 00:04:15;;;;;;;6.25;0.85;;;12.40;99.90;;;;;;5049877;28;20048;-50
2023/08/31 00:06:41;;;;;;;2.17;0.80;;;12.40;99.90;;;;;;5049344;28;20037;-51
2023/08/31 00:09:09;;;;;;;;;;;12.30;99.90;;;;;;5050006;28;20398;-50
2023/08/31 00:11:35;;;;;;;;;;;12.20;99.90;;;;;;5050808;28;20023;-52
2023/08/31 00:14:00;;;;;;;7.55;1.10;;;12.20;99.90;;;;;;5050345;28;20041;-50
2023/08/31 00:16:26;;;;;;;2.10;0.80;;;12.20;99.90;;;;;;5048767;28;20131;-52
2023/08/31 00:18:52;;;;;;;1.98;0.85;;;12.20;99.90;;;;;;5048237;28;20283;-50
2023/08/31 00:21:18;;;;;;;3.25;1.10;;;12.20;99.90;;;;;;5050829;28;20502;-50
2023/08/31 00:23:44;;;;;;;4.32;1.05;;;12.10;99.90;;;;;;5050398;28;20041;-51
2023/08/31 00:26:10;;;;;;;7.00;1.60;;;12.10;99.90;;;;;;5050020;28;20049;-54
2023/08/31 00:28:36;;;;;;;7.20;1.10;;;12.10;99.90;;;;;;5045784;28;20279;-52
2023/08/31 00:31:03;;;;;;;7.45;2.00;;;12.10;99.90;;;;;;5049847;28;20559;-51
2023/08/31 00:33:29;;;;;;;3.38;1.50;;;12.10;99.90;;;;;;5048228;28;20080;-50
2023/08/31 00:35:56;;;;;;;5.80;1.50;;;12.10;99.90;;;;;;5048970;28;20484;-50
2023/08/31 00:38:21;;;;;;;9.63;2.08;;;12.10;99.90;;;;;;5045932;28;20581;-50
2023/08/31 00:40:47;;;;;;;4.82;1.25;;;12.00;99.90;;;;;;5049396;28;20036;-51
2023/08/31 00:43:17;;;;;;;2.90;1.65;;;12.10;99.90;;;;;;5050375;28;20033;-50
2023/08/31 00:45:44;;;;;;;7.70;1.83;;;12.00;99.90;;;;;;5049319;28;20049;-53
2023/08/31 00:48:12;;;;;;;11.65;1.52;;;12.10;99.90;;;;;;5048995;28;20052;-52
2023/08/31 00:50:37;;;;;;;6.38;1.52;;;12.00;99.90;;;;;;5049589;28;20087;-50
2023/08/31 00:53:03;;;;;;;8.98;1.50;;;12.00;99.90;;;;;;5050239;28;20032;-50
2023/08/31 00:55:29;;;;;;;5.45;2.20;;;12.00;99.90;;;;;;5049002;28;20036;-51
2023/08/31 00:57:55;;;;;;;2.80;1.77;;;12.00;99.90;;;;;;5050164;28;20029;-52
2023/08/31 01:00:25;;;;;;;4.28;2.38;;;12.00;99.90;;;;;;5049072;28;20039;-50
2023/08/31 01:03:03;;;;;;;9.27;2.38;;;12.00;99.90;;;;;;5044865;28;20048;-50
2023/08/31 01:05:55;;;;;;;7.53;2.38;;;12.10;99.90;;;;;;5049755;28;20040;-50
2023/08/31 01:08:33;;;;;;;4.07;2.17;;;12.10;99.90;;;;;;5049341;28;20397;-50
2023/08/31 01:11:13;;;;;;;5.72;2.00;;;12.10;99.90;;;;;;5048754;28;20126;-52
2023/08/31 01:13:44;;;;;;;8.00;2.42;;;12.10;99.90;;;;;;5049948;28;20128;-52
2023/08/31 01:16:11;;;;;;;6.60;2.55;;;12.10;99.90;;;;;;5050723;28;20040;-53
2023/08/31 01:18:39;;;;;;;6.05;2.33;;;12.10;99.90;;;;;;5048815;28;20071;-51
2023/08/31 01:21:27;;;;;;;5.60;2.35;;;12.20;99.90;;;;;;5048825;28;20032;-50
2023/08/31 01:23:54;;;;;;;7.63;2.20;;;12.20;99.90;;;;;;5050132;28;20073;-50
2023/08/31 01:26:21;;;;;;;4.38;1.73;;;12.20;99.90;;;;;;5048583;28;20405;-50
2023/08/31 01:28:48;;;;;;;5.53;2.00;;;12.20;99.90;;;;;;5048937;28;20041;-51
2023/08/31 01:31:15;;;;;;;7.28;2.50;;;12.20;99.90;;;;;;5049465;28;20083;-50
2023/08/31 01:33:40;;;;;;;6.13;2.42;;;12.10;99.90;;;;;;5048860;28;20044;-50
2023/08/31 01:36:13;;;;;;;4.53;2.33;;;12.10;99.90;;;;;;5048927;28;20045;-49
2023/08/31 01:38:45;;;;;;;11.80;2.03;;;12.00;99.90;;;;;;5048249;28;20045;-52
2023/08/31 01:41:16;;;;;;;4.18;2.08;;;12.00;99.90;;;;;;5046681;28;20033;-50
2023/08/31 01:43:42;;;;;;;2.50;1.80;;;12.00;99.90;;;;;;5048834;28;20112;-50
2023/08/31 01:46:09;;;;;;;6.07;3.45;;;12.00;99.90;;;;;;5047701;28;20041;-51
2023/08/31 01:48:40;;;;;;;;;;;11.90;99.90;;;;;;5048420;28;20037;-50
2023/08/31 01:51:07;;;;;;;7.28;2.42;;;12.00;99.90;;;;;;5046892;28;19916;-50
2023/08/31 01:53:33;;;;;;;8.57;3.38;;;11.90;99.90;;;;;;5047293;28;20077;-50
2023/08/31 01:55:58;;;;;;;7.72;2.95;;;11.90;99.90;;;;;;5047781;28;20558;-51
2023/08/31 01:58:24;;;;;;;7.47;3.22;;;11.90;99.90;;;;;;5030620;28;20429;-52
2023/08/31 02:00:49;;;;;;;5.43;3.40;;;11.90;99.90;;;;;;5046385;28;20033;-50
2023/08/31 02:03:15;;;;;;;5.93;3.88;;;11.90;99.90;;;;;;5048714;28;20044;-52
2023/08/31 02:05:41;;;;;;;5.73;3.67;;;11.80;99.90;;;;;;5042559;28;20044;-50
2023/08/31 02:08:06;;;;;;;5.63;4.25;;;11.80;99.90;;;;;;5048290;28;20043;-51
2023/08/31 02:10:32;;;;;;;10.98;4.63;;;11.80;99.90;;;;;;5048139;28;20122;-49
2023/08/31 02:12:57;;;;;;;8.73;5.00;;;11.80;99.90;;;;;;5048670;28;20048;-50
2023/08/31 02:15:23;;;;;;;7.80;5.13;;;11.80;99.90;;;;;;5047659;28;20029;-50
2023/08/31 02:17:49;;;;;;;11.17;5.00;;;11.80;99.90;;;;;;5048293;28;20357;-53
2023/08/31 02:20:14;;;;;;;8.47;5.93;;;11.80;99.90;;;;;;5047146;28;20275;-50
2023/08/31 02:22:40;;;;;;;11.18;6.07;;;11.80;99.90;;;;;;5048940;28;20094;-50
2023/08/31 02:25:05;;;;;;;5.55;5.05;;;11.80;99.90;;;;;;5048187;28;20041;-50
2023/08/31 02:27:31;;;;;;;7.88;5.57;;;11.80;99.90;;;;;;5048386;28;20445;-51
2023/08/31 02:29:57;;;;;;;7.55;5.10;;;11.70;99.90;;;;;;5047123;28;20047;-50
2023/08/31 02:32:23;;;;;;;8.18;6.32;;;11.80;99.90;;;;;;5048183;28;20043;-50
2023/08/31 02:34:50;;;;;;;8.25;6.10;;;11.70;99.90;;;;;;5030061;28;20048;-50
2023/08/31 02:37:16;;;;;;;7.28;6.43;;;11.70;99.90;;;;;;5048673;28;20106;-51
2023/08/31 02:39:41;;;;;;;12.52;7.20;;;11.70;99.90;;;;;;5047776;28;20132;-50
2023/08/31 02:42:07;;;;;;;8.18;7.35;;;11.60;99.90;;;;;;5048463;28;20044;-50
2023/08/31 02:44:33;;;;;;;;;;;11.60;99.90;;;;;;5048426;28;20418;-50
2023/08/31 02:46:58;;;;;;;9.57;7.53;;;11.60;99.90;;;;;;5046944;28;20321;-52
2023/08/31 02:49:24;;;;;;;9.27;6.63;;;11.60;99.90;;;;;;5047161;28;20055;-52
2023/08/31 02:51:50;;;;;;;12.43;7.63;;;11.60;99.90;;;;;;5048000;28;20675;-49
2023/08/31 02:54:15;;;;;;;11.17;7.67;;;11.60;99.90;;;;;;5048103;28;20736;-50
2023/08/31 02:56:42;;;;;;;8.77;7.00;;;11.60;99.90;;;;;;5048149;28;20354;-51
2023/08/31 02:59:07;;;;;;;10.23;7.53;;;11.60;99.90;;;;;;5047521;28;20033;-53
2023/08/31 03:01:33;;;;;;;7.82;6.90;;;11.60;99.90;;;;;;5046135;28;20044;-53
2023/08/31 03:03:58;;;;;;;11.38;7.30;;;11.60;99.90;;;;;;5048800;28;20037;-49
2023/08/31 03:06:25;;;;;;;10.63;7.17;;;11.60;99.90;;;;;;5045490;28;20406;-52
2023/08/31 03:08:51;;;;;;;12.85;7.25;;;11.50;99.90;;;;;;5050577;28;20032;-54
2023/08/31 03:11:17;;;;;;;7.17;6.47;;;11.50;99.90;;;;;;5050940;28;20557;-51
2023/08/31 03:13:42;;;;;;;7.13;6.22;;;11.50;99.90;;;;;;5051623;28;20302;-51
2023/08/31 03:16:08;;;;;;;6.78;6.18;;;11.50;99.90;;;;;;5049726;28;20036;-50
2023/08/31 03:18:33;;;;;;;9.40;6.32;;;11.50;99.90;;;;;;5051229;28;20079;-53
2023/08/31 03:20:59;;;;;;;6.05;5.45;;;11.50;99.90;;;;;;5050573;28;20051;-51
2023/08/31 03:23:25;;;;;;;7.55;5.70;;;11.50;99.90;;;;;;5051714;28;20037;-51
2023/08/31 03:25:51;;;;;;;6.53;5.63;;;11.40;99.90;;;;;;5051454;28;20420;-53
2023/08/31 03:28:16;;;;;;;7.43;6.00;;;11.50;99.90;;;;;;5050899;28;20037;-53
2023/08/31 03:30:44;;;;;;;7.00;6.05;;;11.50;99.90;;;;;;5050893;28;20048;-51
2023/08/31 03:33:11;;;;;;;6.53;5.82;;;11.50;99.90;;;;;;5051477;28;20504;-51
2023/08/31 03:35:36;;;;;;;12.10;6.55;;;11.50;99.90;;;;;;5050723;28;20396;-52
2023/08/31 03:38:02;;;;;;;6.32;5.72;;;11.50;99.90;;;;;;5051251;28;20108;-50
2023/08/31 03:40:28;;;;;;;10.68;5.68;;;11.50;99.90;;;;;;5051101;28;20041;-52
2023/08/31 03:42:54;;;;;;;8.15;5.32;;;11.50;99.90;;;;;;5048589;28;20123;-50
2023/08/31 03:45:20;;;;;;;5.50;4.97;;;11.50;99.90;;;;;;5033245;28;20068;-50
2023/08/31 03:47:46;;;;;;;5.70;4.95;;;11.50;99.90;;;;;;5051211;28;20132;-50
2023/08/31 03:50:11;;;;;;;5.20;4.72;;;11.50;99.90;;;;;;5050931;28;20040;-51
2023/08/31 03:52:37;;;;;;;5.90;5.03;;;11.50;99.90;;;;;;5050711;28;20048;-50
2023/08/31 03:55:03;;;;;;;4.70;4.40;;;11.50;99.90;;;;;;5033114;28;21026;-50
2023/08/31 03:57:28;;;;;;;5.88;4.63;;;11.50;99.90;;;;;;5050468;28;20298;-53
2023/08/31 03:59:54;;;;;;;6.93;4.30;;;11.50;99.90;;;;;;5050732;28;20540;-49
2023/08/31 04:02:19;;;;;;;4.63;4.23;;;11.50;99.90;;;;;;5050945;28;20045;-50
2023/08/31 04:04:45;;;;;;;7.38;5.47;;;11.40;99.90;;;;;;5048121;28;20307;-53
2023/08/31 04:07:10;;;;;;;5.23;4.77;;;11.50;99.90;;;;;;5045282;28;20472;-50
2023/08/31 04:09:36;;;;;;;5.27;4.83;;;11.50;99.90;;;;;;5050157;28;20280;-52
2023/08/31 04:12:02;;;;;;;6.43;4.70;;;11.50;99.90;;;;;;5050571;28;20433;-50
2023/08/31 04:14:28;;;;;;;5.80;4.85;;;11.50;99.90;;;;;;5050325;28;20490;-51
2023/08/31 04:16:55;;;;;;;5.45;4.97;;;11.40;99.90;;;;;;5049866;28;20060;-51
2023/08/31 04:19:21;;;;;;;5.57;3.63;;;11.50;99.90;;;;;;5049938;28;20485;-50
2023/08/31 04:21:47;;;;;;;4.78;3.15;;;11.50;99.90;;;;;;5050587;28;20071;-52
2023/08/31 04:24:13;;;;;;;5.35;3.25;;;11.50;99.90;;;;;;5050274;28;20486;-51
2023/08/31 04:26:39;;;;;;;5.78;3.05;;;11.50;99.90;;;;;;5049533;28;20068;-50
2023/08/31 04:29:05;;;;;;;4.15;2.90;;;11.60;99.90;;;;;;5049516;28;20055;-49
2023/08/31 04:31:32;;;;;;;5.20;2.90;;;11.60;99.90;;;;;;5050746;28;20067;-49
2023/08/31 04:33:58;;;;;;;5.90;2.63;;;11.60;99.90;;;;;;5050268;28;20033;-52
2023/08/31 04:36:25;;;;;;;;;;;11.60;99.90;;;;;;5032235;28;20036;-52
2023/08/31 04:38:51;;;;;;;3.85;2.88;;;11.60;99.90;;;;;;5049404;28;20011;-53
2023/08/31 04:41:17;;;;;;;4.70;2.75;;;11.60;99.90;;;;;;5050031;28;20585;-50
2023/08/31 04:43:42;;;;;;;3.03;2.22;;;11.60;99.90;;;;;;5050154;28;20064;-50
2023/08/31 04:46:08;;;;;;;4.60;2.67;;;11.70;99.90;;;;;;5049769;28;20494;-50
2023/08/31 04:48:33;;;;;;;6.50;2.58;;;11.70;99.90;;;;;;5048908;28;20112;-50
2023/08/31 04:50:59;;;;;;;2.90;2.17;;;11.70;99.90;;;;;;5049790;28;20037;-50
2023/08/31 04:53:25;;;;;;;9.80;2.75;;;11.70;99.90;;;;;;5049592;28;20048;-54
2023/08/31 04:55:51;;;;;;;3.53;2.40;;;11.80;99.90;;;;;;5047662;28;20537;-51
2023/08/31 04:58:17;;;;;;;7.72;2.47;;;11.80;99.90;;;;;;5049647;28;20487;-50
2023/08/31 05:00:44;;;;;;;6.15;2.47;;;11.80;99.90;;;;;;5031158;28;20033;-50
2023/08/31 05:03:10;;;;;;;4.03;2.30;;;11.90;99.90;;;;;;5031664;28;20045;-50
2023/08/31 05:05:35;;;;;;;6.18;2.40;;;11.90;99.90;;;;;;5049140;28;20044;-50
2023/08/31 05:08:02;;;;;;;3.83;2.10;;;11.90;99.90;;;;;;5043689;28;20064;-52
2023/08/31 05:10:28;;;;;;;3.92;2.13;;;12.00;99.90;;;;;;5048982;28;20044;-50
2023/08/31 05:12:54;;;;;;;7.72;2.15;;;12.00;99.90;;;;;;5031564;28;20045;-50
2023/08/31 05:15:19;;;;;;;3.38;2.17;;;12.00;99.90;;;;;;5049060;28;20029;-53
2023/08/31 05:17:45;;;;;;;5.32;3.17;;;12.00;99.90;;;;;;5049267;28;20025;-50
2023/08/31 05:20:11;;;;;;;5.57;2.87;;;12.10;99.90;;;;;;5048363;28;20429;-51
2023/08/31 05:22:36;;;;;;;5.03;2.30;;;12.10;99.90;;;;;;5044912;28;20388;-50
2023/08/31 05:25:05;;;;;;;5.53;2.80;;;12.10;99.90;;;;;;5046892;28;20140;-51
2023/08/31 05:27:31;;;;;;;4.03;2.30;;;12.20;99.90;;;;;;5047186;28;20379;-51
2023/08/31 05:29:56;;;;;;;4.15;2.53;;;12.10;99.90;;;;;;5046957;28;20112;-51
2023/08/31 05:32:22;;;;;;;6.47;2.55;;;12.10;99.90;;;;;;5049206;28;20055;-52
2023/08/31 05:34:48;;;;;;;5.93;2.97;;;12.20;99.90;;;;;;5047265;28;20033;-50
2023/08/31 05:37:14;;;;;;;3.72;2.70;;;12.20;99.90;;;;;;5048997;28;20033;-51
2023/08/31 05:39:39;;;;;;;4.63;2.50;;;12.20;99.90;;;;;;5047283;28;20041;-50
2023/08/31 05:42:05;;;;;;;4.15;2.97;;;12.20;99.90;;;;;;5049282;28;20033;-50
2023/08/31 05:44:31;;;;;;;4.10;2.83;;;12.20;99.90;;;;;;5049013;28;20531;-54
2023/08/31 05:46:56;;;;;;;4.88;3.28;;;12.20;99.90;;;;;;5048275;28;20565;-50
2023/08/31 05:49:22;;;;;;;7.28;2.65;;;12.30;99.90;;;;;;5048048;28;20035;-50
2023/08/31 05:51:48;;;;;;;5.35;2.67;;;12.30;99.90;;;;;;5031075;28;20433;-50
2023/08/31 05:54:13;;;;;;;6.63;2.80;;;12.40;99.90;;;;;;5048029;28;20075;-50
2023/08/31 05:56:40;;;;;;;3.45;2.45;;;12.40;99.90;;;;;;5048484;28;20112;-54
2023/08/31 05:59:06;;;;;;;7.70;2.63;;;12.50;99.90;;;;;;5029794;28;20037;-53
2023/08/31 06:01:32;;;;;;;;;;;12.60;99.90;;;;;;5049282;28;20037;-50
2023/08/31 06:03:58;;;;;;;5.63;2.55;;;12.70;99.90;;;;;;5048558;28;21446;-52
2023/08/31 06:06:23;;;;;;;5.80;2.67;;;12.70;99.90;;;;;;5048306;28;20037;-54
2023/08/31 06:08:49;;;;;;;3.70;2.53;;;12.80;99.90;;;;;;5046870;28;20792;-53
2023/08/31 06:11:15;;;;;;;4.28;2.75;;;12.90;99.90;;;;;;5025499;28;20044;-50
2023/08/31 06:13:41;;;;;;;3.95;2.08;;;12.90;99.90;;;;;;5042737;28;20037;-51
2023/08/31 06:16:07;;;;;;;5.13;2.40;;;13.00;99.90;;;;;;5043743;28;20041;-53
2023/08/31 06:18:32;;;;;;;3.88;2.65;;;13.10;99.90;;;;;;5048223;28;20036;-52
2023/08/31 06:20:58;;;;;;;7.43;2.45;;;13.20;99.90;;;;;;5042356;28;20619;-51
2023/08/31 06:23:24;;;;;;;5.47;2.70;;;13.20;99.90;;;;;;5039148;28;20037;-53
2023/08/31 06:25:49;;;;;;;4.97;3.05;;;13.20;99.90;;;;;;5045661;28;21321;-50
2023/08/31 06:28:16;;;;;;;5.53;2.72;;;13.20;99.90;;;;;;5028873;28;20093;-50
2023/08/31 06:30:48;;;;;;;4.32;2.53;;;13.30;99.90;;;;;;5042223;28;20060;-50
2023/08/31 06:33:14;;;;;;;3.55;2.33;;;13.40;99.90;;;;;;5044331;28;20172;-52
2023/08/31 06:35:40;;;;;;;2.78;2.55;;;13.50;99.90;;;;;;5036171;28;20041;-49
2023/08/31 06:38:06;;;;;;;12.45;2.95;;;13.60;99.90;;;;;;5045011;28;20678;-50
2023/08/31 06:40:32;;;;;;;4.25;2.90;;;13.70;99.90;;;;;;5050095;28;20057;-52
2023/08/31 06:42:59;;;;;;;5.45;2.10;;;13.80;99.90;;;;;;5054596;28;20574;-50
2023/08/31 06:45:24;;;;;;;;;;;13.80;99.90;;;;;;5054593;28;20049;-50
2023/08/31 06:47:50;;;;;;;5.30;2.80;;;13.90;99.90;;;;;;5053432;28;19916;-50
2023/08/31 06:50:16;;;;;;;7.30;2.93;;;14.00;99.90;;;;;;5049677;28;20409;-53
2023/08/31 06:52:42;;;;;;;5.00;2.28;;;14.10;99.90;;;;;;5054390;28;20306;-52
2023/08/31 06:55:08;;;;;;;5.28;2.15;;;14.20;99.90;;;;;;5054427;28;20033;-50
2023/08/31 06:57:33;;;;;;;6.18;2.45;;;14.30;99.90;;;;;;5054809;28;20098;-50
2023/08/31 06:59:59;;;;;;;5.82;3.05;;;14.40;99.90;;;;;;5054193;28;20494;-51
2023/08/31 07:02:28;;;;;;;4.10;2.83;;;14.50;99.90;;;;;;5055316;28;20051;-51
2023/08/31 07:04:53;;;;;;;7.50;2.50;;;14.60;99.90;;;;;;5053384;28;20044;-50
2023/08/31 07:07:19;;;;;;;4.50;3.03;;;14.70;99.90;;;;;;5054194;28;20045;-50
2023/08/31 07:09:47;;;;;;;4.50;2.75;;;14.60;99.90;;;;;;5052158;28;20083;-53
2023/08/31 07:12:12;;;;;;;6.55;2.70;;;14.60;99.90;;;;;;5048991;28;20036;-51
2023/08/31 07:14:38;;;;;;;6.43;2.70;;;14.50;99.90;;;;;;5053963;28;20037;-52
2023/08/31 07:17:04;;;;;;;7.30;3.42;;;14.40;99.90;;;;;;5054136;28;20150;-51
2023/08/31 07:19:30;;;;;;;7.20;2.67;;;14.50;99.90;;;;;;5045939;28;20394;-52
2023/08/31 07:21:55;;;;;;;6.30;2.38;;;14.50;99.90;;;;;;5051817;28;20059;-53
2023/08/31 07:24:24;;;;;;;7.57;2.78;;;14.60;99.90;;;;;;5054249;28;20078;-50
2023/08/31 07:26:50;;;;;;;5.47;2.28;;;14.70;99.90;;;;;;5053566;28;20033;-51
2023/08/31 07:29:16;;;;;;;4.03;2.47;;;14.80;99.90;;;;;;5053718;28;20051;-54
2023/08/31 07:31:41;;;;;;;4.50;2.13;;;14.90;99.90;;;;;;5046596;28;20037;-53
2023/08/31 07:34:07;;;;;;;5.78;2.45;;;14.90;99.90;;;;;;5050445;28;20098;-50
2023/08/31 07:36:34;;;;;;;2.65;2.42;;;15.00;99.90;;;;;;5046955;28;20037;-51
2023/08/31 07:38:59;;;;;;;;;;;15.20;99.90;;;;;;5050036;28;20048;-51
2023/08/31 07:41:25;;;;;;;6.45;2.08;;;15.30;99.90;;;;;;5047030;28;19920;-53
2023/08/31 07:43:50;;;;;;;3.67;1.90;;;15.40;99.90;;;;;;5051947;28;20037;-50
2023/08/31 07:46:16;;;;;;;7.85;1.98;;;15.40;99.90;;;;;;5053000;28;20533;-51
2023/08/31 07:48:42;;;;;;;3.40;2.00;;;15.50;99.90;;;;;;5052149;28;20734;-51
2023/08/31 07:51:08;;;;;;;6.72;2.05;;;15.60;99.90;;;;;;5042620;28;20048;-52
2023/08/31 07:53:34;;;;;;;4.15;2.05;;;15.70;99.90;;;;;;5045306;28;20498;-50
2023/08/31 07:55:59;;;;;;;4.78;1.52;;;15.80;99.90;;;;;;5044596;28;20132;-50
2023/08/31 07:58:28;;;;;;;8.38;2.03;;;15.90;99.90;;;;;;5049192;28;20033;-52
2023/08/31 08:00:55;;;;;;;8.57;1.02;;;15.90;99.90;;;;;;5032567;28;20037;-50
2023/08/31 08:03:21;;;;;;;4.30;1.30;;;16.00;99.90;;;;;;5050710;28;20040;-52
2023/08/31 08:05:47;;;;;;;;;;;16.00;99.90;;;;;;5051183;28;20037;-50
2023/08/31 08:08:12;;;;;;;2.75;0.68;;;16.00;99.90;;;;;;5047694;28;20019;-50
2023/08/31 08:10:38;;;;;;;3.40;1.13;;;16.10;99.90;;;;;;5050171;28;20061;-51
2023/08/31 08:13:04;;;;;;;3.10;0.52;;;16.30;99.90;;;;;;5050071;28;20036;-52
2023/08/31 08:15:30;;;;;;;4.28;0.93;;;16.40;99.90;;;;;;5046730;28;20570;-53
2023/08/31 08:17:57;;;;;;;4.97;0.80;;;16.60;99.90;;;;;;5050281;28;20048;-53
2023/08/31 08:20:23;;;;;;;6.88;1.05;;;16.60;99.90;;;;;;5032338;28;20045;-52
2023/08/31 08:22:52;;;;;;;;;;;16.70;99.90;;;;;;5047818;28;20567;-51
2023/08/31 08:25:18;;;;;;;4.07;0.50;;;16.80;99.90;;;;;;5031348;28;19917;-51
2023/08/31 08:27:44;;;;;;;6.25;0.63;;;16.90;99.90;;;;;;5049581;28;20051;-53
2023/08/31 08:30:10;;;;;;;1.15;0.30;;;17.00;99.90;;;;;;5047479;28;20029;-50
2023/08/31 08:32:36;;;;;;;2.88;0.40;;;17.00;99.90;;;;;;5045725;28;20041;-51
2023/08/31 08:35:02;;;;;;;2.78;0.30;;;17.10;99.90;;;;;;5046422;28;20277;-50
2023/08/31 08:37:29;;;;;;;4.00;0.57;;;17.20;99.90;;;;;;5046856;28;20071;-52
2023/08/31 08:39:54;;;;;;;5.15;0.70;;;17.40;99.90;;;;;;5048317;28;20313;-50
2023/08/31 08:42:24;;;;;;;3.83;0.68;;;17.50;99.90;;;;;;5044715;28;20036;-51
2023/08/31 08:44:50;;;;;;;2.35;0.30;;;17.60;99.90;;;;;;5040565;28;20072;-53
2023/08/31 08:47:17;;;;;;;3.00;0.30;;;17.50;99.90;;;;;;5042910;28;20056;-51
2023/08/31 08:49:43;;;;;;;3.90;0.30;;;17.40;99.90;;;;;;5043427;28;20037;-52
2023/08/31 08:52:09;;;;;;;10.57;0.47;;;17.40;99.90;;;;;;5044584;28;20044;-52
2023/08/31 08:54:35;;;;;;;3.72;0.30;;;17.30;99.90;;;;;;5042481;28;20076;-55
2023/08/31 08:57:03;;;;;;;2.45;0.20;;;17.20;99.90;;;;;;5038281;28;20025;-52
2023/08/31 08:59:30;;;;;;;2.25;0.20;;;17.30;99.90;;;;;;5040283;28;20098;-51
2023/08/31 09:01:56;;;;;;;1.98;0.30;;;17.30;99.90;;;;;;5042452;28;20098;-51
2023/08/31 09:04:21;;;;;;;1.35;0.20;;;17.50;99.90;;;;;;5035637;28;20049;-53
2023/08/31 09:06:47;;;;;;;2.90;0.20;;;17.60;99.90;;;;;;5038551;28;20047;-52
2023/08/31 09:09:13;;;;;;;1.77;0.35;;;17.80;99.90;;;;;;5042883;28;20397;-55
2023/08/31 09:11:39;;;;;;;1.65;0.20;;;18.00;99.90;;;;;;5043512;28;20167;-51
2023/08/31 09:14:18;;;;;;;1.50;0.20;;;18.10;99.90;;;;;;5041739;28;20068;-53
2023/08/31 09:16:46;;;;;;;2.10;0.13;;;18.30;99.90;;;;;;5040912;28;20041;-52
2023/08/31 09:19:26;;;;;;;1.33;0.10;;;18.40;99.90;;;;;;5046007;28;20510;-51
2023/08/31 09:21:57;;;;;;;0.47;0.20;;;18.50;99.90;;;;;;5044776;28;20049;-54
2023/08/31 09:24:23;;;;;;;1.80;0.10;;;18.60;99.90;;;;;;5046914;28;20037;-54
2023/08/31 09:26:57;;;;;;;1.90;0.40;;;18.70;99.90;;;;;;5039919;28;20418;-54
2023/08/31 09:29:23;;;;;;;1.27;0.10;;;18.80;99.90;;;;;;5045321;28;20128;-51
2023/08/31 09:31:49;;;;;;;;;;;18.80;99.90;;;;;;5041596;28;20111;-53
2023/08/31 09:34:16;;;;;;;1.55;0.20;;;18.60;99.90;;;;;;5049417;28;20340;-53
2023/08/31 09:36:42;;;;;;;1.13;0.20;;;18.30;99.90;;;;;;5026448;28;20072;-54
2023/08/31 09:39:12;;;;;;;1.20;0.20;;;18.20;99.90;;;;;;5043754;28;20045;-55
2023/08/31 09:41:54;;;;;;;2.95;0.30;;;18.10;99.90;;;;;;5047086;28;20461;-51
2023/08/31 09:44:20;;;;;;;3.03;0.25;;;18.00;99.90;;;;;;5041397;28;20045;-53
2023/08/31 09:46:47;;;;;;;1.48;0.28;;;18.10;99.90;;;;;;5049687;28;20456;-54
2023/08/31 09:49:13;;;;;;;;;;;18.30;99.90;;;;;;5042822;28;20060;-56
2023/08/31 09:51:43;;;;;;;0.80;0.40;;;18.40;99.90;;;;;;5043053;28;19990;-57
2023/08/31 09:54:12;;;;;;;1.33;0.45;;;18.50;99.90;;;;;;5047148;28;20044;-54
2023/08/31 09:56:41;;;;;;;1.85;0.20;;;18.60;99.90;;;;;;5043524;28;20452;-51
2023/08/31 09:59:07;;;;;;;1.20;0.10;;;18.80;99.90;;;;;;5029278;28;20503;-52
2023/08/31 10:01:33;;;;;;;;;;;18.90;99.90;;;;;;5041985;28;20036;-56
2023/08/31 10:03:59;;;;;;;1.95;0.20;;;19.00;99.90;;;;;;5041554;28;20059;-52
2023/08/31 10:06:27;;;;;;;2.65;0.30;;;18.90;99.90;;;;;;5048900;28;20049;-55
2023/08/31 10:08:53;;;;;;;3.60;0.50;;;18.90;99.90;;;;;;5044851;28;20045;-57
2023/08/31 10:11:19;;;;;;;1.00;0.20;;;18.80;99.90;;;;;;5044441;28;20128;-52
2023/08/31 10:13:47;;;;;;;2.10;0.20;;;18.80;99.90;;;;;;5042622;28;20128;-53
2023/08/31 10:16:13;;;;;;;1.75;0.30;;;18.70;99.90;;;;;;5045249;28;20083;-51
2023/08/31 10:18:39;;;;;;;2.40;0.50;;;18.70;99.90;;;;;;5042895;28;20366;-54
2023/08/31 10:21:05;;;;;;;1.73;0.45;;;18.70;99.90;;;;;;5047093;28;20036;-52
2023/08/31 10:23:32;;;;;;;1.25;0.20;;;18.80;99.90;;;;;;5035571;28;20128;-52
2023/08/31 10:25:57;;;;;;;1.02;0.10;;;18.90;99.90;;;;;;5022945;28;20041;-56
2023/08/31 10:28:24;;;;;;;1.85;0.32;;;18.80;99.90;;;;;;5043562;28;20526;-52
2023/08/31 10:31:03;;;;;;;3.33;0.17;;;18.70;99.90;;;;;;5041396;28;20099;-53
2023/08/31 10:33:31;;;;;;;1.92;0.20;;;18.70;99.90;;;;;;5043225;28;20049;-54
2023/08/31 10:35:58;;;;;;;1.42;0.20;;;18.70;99.90;;;;;;5041029;28;20041;-52
2023/08/31 10:38:26;;;;;;;1.48;0.38;;;18.80;99.90;;;;;;5042768;28;20481;-53
2023/08/31 10:41:11;;;;;;;3.40;0.30;;;18.70;99.90;;;;;;5041707;28;20581;-55
2023/08/31 10:43:45;;;;;;;5.35;0.63;;;18.50;99.90;;;;;;5021553;28;20045;-53
2023/08/31 10:46:28;;;;;;;3.38;0.20;;;18.40;99.90;;;;;;5037753;28;20102;-53
2023/08/31 10:49:03;;;;;;;1.05;0.30;;;18.10;99.90;;;;;;5040930;28;20032;-54
2023/08/31 10:51:32;;;;;;;6.10;0.40;;;17.90;99.90;;;;;;5037479;28;20033;-52
2023/08/31 10:54:15;;;;;;;2.55;0.52;;;17.70;99.90;;;;;;5044949;28;20113;-55
2023/08/31 10:57:05;;;;;;;4.97;0.40;;;17.20;99.90;;;;;;5044443;28;20394;-52
2023/08/31 10:59:42;;;;;;;8.73;0.40;;;16.90;99.90;;;;;;5043141;28;20048;-54
2023/08/31 11:02:08;;;;;;;4.57;0.45;;;16.60;99.90;;;;;;5036688;28;20064;-54
2023/08/31 11:05:00;;;;;;;0.80;0.20;;;16.40;99.90;;;;;;5032913;28;20525;-55
2023/08/31 11:07:27;;;;;;;3.13;0.22;;;16.40;99.90;;;;;;5032558;28;20045;-51
2023/08/31 11:10:10;;;;;;;0.82;0.17;;;16.40;99.90;;;;;;5043425;28;20029;-54
2023/08/31 11:12:37;;;;;;;2.28;0.57;;;16.40;99.90;;;;;;5038151;28;20033;-52
2023/08/31 11:15:03;;;;;;;3.60;0.25;;;16.40;99.90;;;;;;5029303;28;20045;-54
2023/08/31 11:17:29;;;;;;;41.03;1.60;;;16.50;99.90;;;;;;5048712;28;20099;-52
2023/08/31 11:19:56;;;;;;;5.57;0.88;;;16.60;99.90;;;;;;5045756;28;20029;-53
2023/08/31 11:22:22;;;;;;;4.10;1.17;;;16.70;99.90;;;;;;5045539;28;20032;-51
2023/08/31 11:24:48;;;;;;;3.20;0.70;;;16.70;99.90;;;;;;5028555;28;20556;-53
2023/08/31 11:27:14;;;;;;;2.92;0.75;;;16.60;99.90;;;;;;5047716;28;20558;-53
2023/08/31 11:29:44;;;;;;;3.42;0.73;;;16.50;99.90;;;;;;5049779;28;20127;-56
2023/08/31 11:32:09;;;;;;;8.10;1.30;;;16.40;99.90;;;;;;5051718;28;20110;-51
2023/08/31 11:34:39;;;;;;;6.13;0.90;;;16.30;99.90;;;;;;5052794;28;20037;-53
2023/08/31 11:37:05;;;;;;;2.40;0.57;;;16.30;99.90;;;;;;5050843;28;20048;-55
2023/08/31 11:39:30;;;;;;;8.98;0.95;;;16.20;99.90;;;;;;5046640;28;20034;-55
2023/08/31 11:41:56;;;;;;;5.60;0.60;;;16.10;99.90;;;;;;5045716;28;20041;-55
2023/08/31 11:44:22;;;;;;;4.30;0.68;;;16.10;99.90;;;;;;5049506;28;20039;-52
2023/08/31 11:46:50;;;;;;;5.40;0.73;;;16.00;99.90;;;;;;5050425;28;20033;-52
2023/08/31 11:49:19;;;;;;;2.95;0.68;;;16.00;99.90;;;;;;5044361;28;20150;-51
2023/08/31 11:51:45;;;;;;;4.43;0.80;;;16.00;99.90;;;;;;5048457;28;20271;-51
2023/08/31 11:54:11;;;;;;;3.47;0.50;;;16.00;99.90;;;;;;5045441;28;20037;-52
2023/08/31 11:56:40;;;;;;;;;;;16.00;99.90;;;;;;5052041;28;20037;-54
2023/08/31 11:59:11;;;;;;;5.13;0.75;;;16.00;99.90;;;;;;5048812;28;19998;-51
2023/08/31 12:01:39;;;;;;;3.90;0.25;;;15.90;99.90;;;;;;5030506;28;20385;-53
2023/08/31 12:04:15;;;;;;;2.42;0.25;;;15.80;99.90;;;;;;5052173;28;20475;-53
2023/08/31 12:06:41;;;;;;;5.47;0.30;;;15.60;99.90;;;;;;5051055;28;20103;-53
2023/08/31 12:09:10;;;;;;;1.90;0.20;;;15.50;99.90;;;;;;5061161;28;20692;-54
2023/08/31 12:11:36;;;;;;;0.52;0.20;;;15.40;99.90;;;;;;5052221;28;20052;-54
2023/08/31 12:14:06;;;;;;;0.77;0.40;;;15.30;99.90;;;;;;5047938;28;20417;-52
2023/08/31 12:16:37;;;;;;;2.88;0.40;;;15.30;99.90;;;;;;5051588;28;20045;-52
2023/08/31 12:19:06;;;;;;;1.80;0.30;;;15.30;99.90;;;;;;5050672;28;20079;-54
2023/08/31 12:21:31;;;;;;;1.33;0.10;;;15.30;99.90;;;;;;5051999;28;20116;-53
2023/08/31 12:23:58;;;;;;;0.17;0.00;;;15.50;99.90;;;;;;5029820;28;20111;-54
2023/08/31 12:26:25;;;;;;;0.20;0.00;;;15.80;99.90;;;;;;5032876;28;20053;-51
2023/08/31 12:28:50;;;;;;;;;;;16.10;99.90;;;;;;5031806;28;20041;-51
2023/08/31 12:31:16;;;;;;;0.28;0.10;;;16.30;99.90;;;;;;5037298;28;19928;-52
2023/08/31 12:33:41;;;;;;;0.95;0.10;;;16.50;99.90;;;;;;5044301;28;20029;-54
2023/08/31 12:36:07;;;;;;;1.35;0.35;;;16.50;99.90;;;;;;5041932;28;20133;-55
2023/08/31 12:38:33;;;;;;;0.30;0.17;;;16.60;99.90;;;;;;5046076;28;20087;-51
2023/08/31 12:40:59;;;;;;;2.83;0.20;;;16.70;99.90;;;;;;5033292;28;20453;-52
2023/08/31 12:43:24;;;;;;;0.40;0.10;;;16.70;99.90;;;;;;5049858;28;20166;-53
2023/08/31 12:45:50;;;;;;;1.02;0.10;;;16.90;99.90;;;;;;5051102;28;20036;-52
2023/08/31 12:48:16;;;;;;;0.85;0.13;;;17.00;99.90;;;;;;5050995;28;20090;-54
2023/08/31 12:50:41;;;;;;;1.65;0.10;;;17.10;99.90;;;;;;5037698;28;20151;-52